sensor_id;sensor_type;location;lat;lon;timestamp;pressure;altitude;pressure_sealevel;temperature;humidity
9750;BME280;4914;43.218;27.908;2022-07-11T00:02:03;100303.75;;;20.61;100.00
9750;BME280;4914;43.218;27.908;2022-07-11T00:04:31;100305.66;;;20.67;100.00
9750;BME280;4914;43.218;27.908;2022-07-11T00:06:59;100311.50;;;20.50;100.00
9750;BME280;4914;43.218;27.908;2022-07-11T00:09:26;100312.22;;;20.29;100.00
9750;BME280;4914;43.218;27.908;2022-07-11T00:11:53;100314.41;;;20.04;100.00
9750;BME280;4914;43.218;27.908;2022-07-11T00:14:22;100313.38;;;19.90;100.00
9750;BME280;4914;43.218;27.908;2022-07-11T00:16:49;100316.91;;;19.76;100.00
9750;BME280;4914;43.218;27.908;2022-07-11T00:19:16;100315.97;;;19.69;100.00
9750;BME280;4914;43.218;27.908;2022-07-11T00:21:43;100312.44;;;19.83;100.00
9750;BME280;4914;43.218;27.908;2022-07-11T00:24:10;100314.41;;;19.89;100.00
9750;BME280;4914;43.218;27.908;2022-07-11T00:26:37;100311.34;;;19.92;100.00
9750;BME280;4914;43.218;27.908;2022-07-11T00:29:05;100323.97;;;19.92;100.00
9750;BME280;4914;43.218;27.908;2022-07-11T00:31:33;100322.69;;;19.88;100.00
9750;BME280;4914;43.218;27.908;2022-07-11T00:34:00;100329.63;;;19.82;100.00
9750;BME280;4914;43.218;27.908;2022-07-11T00:36:27;100322.78;;;19.80;100.00
9750;BME280;4914;43.218;27.908;2022-07-11T00:38:54;100318.22;;;19.80;100.00
9750;BME280;4914;43.218;27.908;2022-07-11T00:41:21;100318.13;;;19.88;100.00
9750;BME280;4914;43.218;27.908;2022-07-11T00:43:51;100316.72;;;19.92;100.00
9750;BME280;4914;43.218;27.908;2022-07-11T00:46:19;100318.59;;;20.07;100.00
9750;BME280;4914;43.218;27.908;2022-07-11T00:48:47;100317.75;;;20.06;100.00
9750;BME280;4914;43.218;27.908;2022-07-11T00:51:14;100321.16;;;20.15;100.00
9750;BME280;4914;43.218;27.908;2022-07-11T00:53:42;100321.38;;;20.13;100.00
9750;BME280;4914;43.218;27.908;2022-07-11T00:56:09;100324.97;;;20.20;100.00
9750;BME280;4914;43.218;27.908;2022-07-11T00:58:36;100336.25;;;20.09;100.00
9750;BME280;4914;43.218;27.908;2022-07-11T01:01:04;100330.09;;;20.00;100.00
9750;BME280;4914;43.218;27.908;2022-07-11T01:03:34;100342.56;;;20.01;100.00
9750;BME280;4914;43.218;27.908;2022-07-11T01:06:03;100351.22;;;19.97;100.00
9750;BME280;4914;43.218;27.908;2022-07-11T01:08:30;100351.03;;;20.13;100.00
9750;BME280;4914;43.218;27.908;2022-07-11T01:11:00;100351.50;;;20.17;100.00
9750;BME280;4914;43.218;27.908;2022-07-11T01:13:27;100350.56;;;20.10;100.00
9750;BME280;4914;43.218;27.908;2022-07-11T01:16:07;100348.53;;;20.12;100.00
9750;BME280;4914;43.218;27.908;2022-07-11T01:18:33;100359.75;;;20.00;100.00
9750;BME280;4914;43.218;27.908;2022-07-11T01:21:03;100357.06;;;20.00;100.00
9750;BME280;4914;43.218;27.908;2022-07-11T01:23:33;100354.75;;;19.97;100.00
9750;BME280;4914;43.218;27.908;2022-07-11T01:26:00;100357.16;;;19.92;100.00
9750;BME280;4914;43.218;27.908;2022-07-11T01:28:27;100368.22;;;19.83;100.00
9750;BME280;4914;43.218;27.908;2022-07-11T01:30:54;100369.78;;;19.77;100.00
9750;BME280;4914;43.218;27.908;2022-07-11T01:33:21;100375.19;;;19.92;100.00
9750;BME280;4914;43.218;27.908;2022-07-11T01:35:47;100371.09;;;19.96;100.00
9750;BME280;4914;43.218;27.908;2022-07-11T01:38:14;100370.91;;;19.97;100.00
9750;BME280;4914;43.218;27.908;2022-07-11T01:40:42;100370.63;;;19.92;100.00
9750;BME280;4914;43.218;27.908;2022-07-11T01:43:09;100384.56;;;19.81;100.00
9750;BME280;4914;43.218;27.908;2022-07-11T01:45:36;100385.66;;;19.72;100.00
9750;BME280;4914;43.218;27.908;2022-07-11T01:48:03;100380.75;;;19.76;100.00
9750;BME280;4914;43.218;27.908;2022-07-11T01:50:30;100391.06;;;19.87;100.00
9750;BME280;4914;43.218;27.908;2022-07-11T01:52:57;100384.50;;;19.89;100.00
9750;BME280;4914;43.218;27.908;2022-07-11T01:55:24;100389.66;;;19.76;100.00
9750;BME280;4914;43.218;27.908;2022-07-11T01:57:52;100388.16;;;19.74;100.00
9750;BME280;4914;43.218;27.908;2022-07-11T02:00:19;100382.66;;;19.67;100.00
9750;BME280;4914;43.218;27.908;2022-07-11T02:02:46;100386.75;;;19.63;100.00
9750;BME280;4914;43.218;27.908;2022-07-11T02:05:13;100387.97;;;19.61;100.00
9750;BME280;4914;43.218;27.908;2022-07-11T02:07:40;100395.50;;;19.65;100.00
9750;BME280;4914;43.218;27.908;2022-07-11T02:10:24;100389.72;;;19.68;100.00
9750;BME280;4914;43.218;27.908;2022-07-11T02:12:56;100387.72;;;19.70;100.00
9750;BME280;4914;43.218;27.908;2022-07-11T02:15:23;100393.66;;;19.66;100.00
9750;BME280;4914;43.218;27.908;2022-07-11T02:17:50;100390.84;;;19.59;100.00
9750;BME280;4914;43.218;27.908;2022-07-11T02:20:18;100396.59;;;19.56;100.00
9750;BME280;4914;43.218;27.908;2022-07-11T02:22:45;100392.38;;;19.53;100.00
9750;BME280;4914;43.218;27.908;2022-07-11T02:25:12;100393.94;;;19.48;100.00
9750;BME280;4914;43.218;27.908;2022-07-11T02:27:39;100391.66;;;19.37;100.00
9750;BME280;4914;43.218;27.908;2022-07-11T02:30:08;100401.59;;;19.36;100.00
9750;BME280;4914;43.218;27.908;2022-07-11T02:32:36;100398.38;;;19.41;100.00
9750;BME280;4914;43.218;27.908;2022-07-11T02:35:04;100393.31;;;19.38;100.00
9750;BME280;4914;43.218;27.908;2022-07-11T02:37:31;100402.59;;;19.35;100.00
9750;BME280;4914;43.218;27.908;2022-07-11T02:39:58;100401.56;;;19.44;100.00
9750;BME280;4914;43.218;27.908;2022-07-11T02:42:25;100403.16;;;19.53;100.00
9750;BME280;4914;43.218;27.908;2022-07-11T02:44:52;100413.09;;;19.53;100.00
9750;BME280;4914;43.218;27.908;2022-07-11T02:47:20;100407.91;;;19.51;100.00
9750;BME280;4914;43.218;27.908;2022-07-11T02:49:47;100407.38;;;19.56;100.00
9750;BME280;4914;43.218;27.908;2022-07-11T02:52:14;100415.31;;;19.49;100.00
9750;BME280;4914;43.218;27.908;2022-07-11T02:54:41;100422.38;;;19.50;100.00
9750;BME280;4914;43.218;27.908;2022-07-11T02:57:08;100422.56;;;19.49;100.00
9750;BME280;4914;43.218;27.908;2022-07-11T02:59:35;100425.28;;;19.41;100.00
9750;BME280;4914;43.218;27.908;2022-07-11T03:02:01;100430.16;;;19.23;100.00
9750;BME280;4914;43.218;27.908;2022-07-11T03:04:32;100425.31;;;19.10;100.00
9750;BME280;4914;43.218;27.908;2022-07-11T03:06:59;100425.84;;;19.05;100.00
9750;BME280;4914;43.218;27.908;2022-07-11T03:09:26;100429.69;;;19.11;100.00
9750;BME280;4914;43.218;27.908;2022-07-11T03:11:53;100432.41;;;19.11;100.00
9750;BME280;4914;43.218;27.908;2022-07-11T03:14:20;100433.69;;;19.23;100.00
9750;BME280;4914;43.218;27.908;2022-07-11T03:16:46;100436.66;;;19.28;100.00
9750;BME280;4914;43.218;27.908;2022-07-11T03:19:14;100438.63;;;19.34;100.00
9750;BME280;4914;43.218;27.908;2022-07-11T03:21:42;100438.00;;;19.32;100.00
9750;BME280;4914;43.218;27.908;2022-07-11T03:24:09;100442.34;;;19.33;100.00
9750;BME280;4914;43.218;27.908;2022-07-11T03:26:35;100447.19;;;19.38;100.00
9750;BME280;4914;43.218;27.908;2022-07-11T03:29:03;100444.31;;;19.39;100.00
9750;BME280;4914;43.218;27.908;2022-07-11T03:31:30;100452.88;;;19.51;100.00
9750;BME280;4914;43.218;27.908;2022-07-11T03:33:57;100450.53;;;19.40;100.00
9750;BME280;4914;43.218;27.908;2022-07-11T03:36:24;100451.88;;;19.44;100.00
9750;BME280;4914;43.218;27.908;2022-07-11T03:38:52;100444.78;;;19.43;100.00
9750;BME280;4914;43.218;27.908;2022-07-11T03:41:19;100445.84;;;19.42;100.00
9750;BME280;4914;43.218;27.908;2022-07-11T03:43:46;100445.50;;;19.45;100.00
9750;BME280;4914;43.218;27.908;2022-07-11T03:46:13;100446.16;;;19.47;100.00
9750;BME280;4914;43.218;27.908;2022-07-11T03:48:40;100448.25;;;19.59;100.00
9750;BME280;4914;43.218;27.908;2022-07-11T03:51:07;100457.56;;;19.72;100.00
9750;BME280;4914;43.218;27.908;2022-07-11T03:53:34;100450.81;;;19.76;100.00
9750;BME280;4914;43.218;27.908;2022-07-11T03:56:02;100454.28;;;19.84;100.00
9750;BME280;4914;43.218;27.908;2022-07-11T03:58:29;100450.81;;;19.90;100.00
9750;BME280;4914;43.218;27.908;2022-07-11T04:00:56;100453.63;;;19.97;100.00
9750;BME280;4914;43.218;27.908;2022-07-11T04:03:23;100452.44;;;19.99;100.00
9750;BME280;4914;43.218;27.908;2022-07-11T04:05:51;100450.84;;;20.05;100.00
9750;BME280;4914;43.218;27.908;2022-07-11T04:08:18;100454.03;;;20.09;100.00
9750;BME280;4914;43.218;27.908;2022-07-11T04:10:45;100453.94;;;20.17;100.00
9750;BME280;4914;43.218;27.908;2022-07-11T04:13:13;100454.97;;;20.16;100.00
9750;BME280;4914;43.218;27.908;2022-07-11T04:15:40;100463.94;;;20.31;100.00
9750;BME280;4914;43.218;27.908;2022-07-11T04:18:07;100466.66;;;20.31;100.00
9750;BME280;4914;43.218;27.908;2022-07-11T04:20:33;100477.44;;;20.31;100.00
9750;BME280;4914;43.218;27.908;2022-07-11T04:23:00;100481.63;;;20.33;100.00
9750;BME280;4914;43.218;27.908;2022-07-11T04:25:27;100480.16;;;20.45;100.00
9750;BME280;4914;43.218;27.908;2022-07-11T04:27:54;100479.88;;;20.55;100.00
9750;BME280;4914;43.218;27.908;2022-07-11T04:30:22;100482.00;;;20.60;100.00
9750;BME280;4914;43.218;27.908;2022-07-11T04:32:49;100474.66;;;20.68;100.00
9750;BME280;4914;43.218;27.908;2022-07-11T04:35:16;100468.63;;;20.66;100.00
9750;BME280;4914;43.218;27.908;2022-07-11T04:37:43;100467.22;;;20.70;100.00
9750;BME280;4914;43.218;27.908;2022-07-11T04:40:10;100475.13;;;20.72;100.00
9750;BME280;4914;43.218;27.908;2022-07-11T04:42:38;100465.69;;;20.82;100.00
9750;BME280;4914;43.218;27.908;2022-07-11T04:45:05;100471.09;;;20.82;100.00
9750;BME280;4914;43.218;27.908;2022-07-11T04:47:34;100478.72;;;20.94;100.00
9750;BME280;4914;43.218;27.908;2022-07-11T04:50:01;100477.97;;;21.00;100.00
9750;BME280;4914;43.218;27.908;2022-07-11T04:52:28;100476.44;;;21.12;100.00
9750;BME280;4914;43.218;27.908;2022-07-11T04:54:54;100468.91;;;21.22;100.00
9750;BME280;4914;43.218;27.908;2022-07-11T04:57:21;100483.72;;;21.26;98.82
9750;BME280;4914;43.218;27.908;2022-07-11T04:59:48;100486.22;;;21.27;97.53
9750;BME280;4914;43.218;27.908;2022-07-11T05:02:15;100493.66;;;21.25;97.89
9750;BME280;4914;43.218;27.908;2022-07-11T05:04:44;100500.06;;;21.39;97.54
9750;BME280;4914;43.218;27.908;2022-07-11T05:07:11;100503.03;;;21.44;96.51
9750;BME280;4914;43.218;27.908;2022-07-11T05:09:39;100493.91;;;21.45;96.64
9750;BME280;4914;43.218;27.908;2022-07-11T05:12:06;100508.13;;;21.54;96.19
9750;BME280;4914;43.218;27.908;2022-07-11T05:14:34;100524.81;;;21.57;93.87
9750;BME280;4914;43.218;27.908;2022-07-11T05:17:01;100516.25;;;21.75;92.97
9750;BME280;4914;43.218;27.908;2022-07-11T05:19:28;100510.56;;;21.70;91.06
9750;BME280;4914;43.218;27.908;2022-07-11T05:21:56;100512.44;;;21.69;92.99
9750;BME280;4914;43.218;27.908;2022-07-11T05:24:23;100515.09;;;21.84;92.85
9750;BME280;4914;43.218;27.908;2022-07-11T05:26:50;100523.66;;;22.09;90.39
9750;BME280;4914;43.218;27.908;2022-07-11T05:29:17;100519.34;;;22.14;88.25
9750;BME280;4914;43.218;27.908;2022-07-11T05:31:44;100521.56;;;22.04;88.45
9750;BME280;4914;43.218;27.908;2022-07-11T05:34:16;100523.44;;;21.89;87.81
9750;BME280;4914;43.218;27.908;2022-07-11T05:36:42;100528.41;;;21.86;89.16
9750;BME280;4914;43.218;27.908;2022-07-11T05:39:11;100524.63;;;21.80;89.61
9750;BME280;4914;43.218;27.908;2022-07-11T05:41:38;100534.63;;;22.01;88.01
9750;BME280;4914;43.218;27.908;2022-07-11T05:44:05;100534.41;;;22.02;87.79
9750;BME280;4914;43.218;27.908;2022-07-11T05:46:31;100530.53;;;22.11;86.59
9750;BME280;4914;43.218;27.908;2022-07-11T05:48:58;100533.72;;;22.15;91.37
9750;BME280;4914;43.218;27.908;2022-07-11T05:51:25;100541.88;;;22.22;97.58
9750;BME280;4914;43.218;27.908;2022-07-11T05:53:52;100547.09;;;22.23;97.88
9750;BME280;4914;43.218;27.908;2022-07-11T05:56:20;100541.03;;;22.21;100.00
9750;BME280;4914;43.218;27.908;2022-07-11T05:58:47;100546.25;;;22.23;100.00
9750;BME280;4914;43.218;27.908;2022-07-11T06:01:14;100534.00;;;22.27;100.00
9750;BME280;4914;43.218;27.908;2022-07-11T06:03:41;100543.72;;;22.21;99.42
9750;BME280;4914;43.218;27.908;2022-07-11T06:06:07;100542.81;;;22.35;99.60
9750;BME280;4914;43.218;27.908;2022-07-11T06:08:35;100552.06;;;22.47;99.48
9750;BME280;4914;43.218;27.908;2022-07-11T06:11:09;100557.22;;;22.42;94.98
9750;BME280;4914;43.218;27.908;2022-07-11T06:13:38;100559.25;;;22.34;100.00
9750;BME280;4914;43.218;27.908;2022-07-11T06:16:06;100552.75;;;22.28;100.00
9750;BME280;4914;43.218;27.908;2022-07-11T06:18:34;100552.91;;;22.20;100.00
9750;BME280;4914;43.218;27.908;2022-07-11T06:21:01;100559.19;;;22.27;100.00
9750;BME280;4914;43.218;27.908;2022-07-11T06:23:27;100558.78;;;22.30;94.76
9750;BME280;4914;43.218;27.908;2022-07-11T06:25:55;100558.50;;;22.46;88.36
9750;BME280;4914;43.218;27.908;2022-07-11T06:28:21;100568.91;;;22.71;83.38
9750;BME280;4914;43.218;27.908;2022-07-11T06:30:50;100575.94;;;22.93;90.53
9750;BME280;4914;43.218;27.908;2022-07-11T06:33:17;100570.72;;;22.91;95.30
9750;BME280;4914;43.218;27.908;2022-07-11T06:35:44;100573.78;;;22.82;94.04
9750;BME280;4914;43.218;27.908;2022-07-11T06:38:11;100572.38;;;22.65;91.33
9750;BME280;4914;43.218;27.908;2022-07-11T06:40:38;100567.44;;;22.68;88.58
9750;BME280;4914;43.218;27.908;2022-07-11T06:43:06;100566.47;;;22.76;93.56
9750;BME280;4914;43.218;27.908;2022-07-11T06:45:33;100565.50;;;22.90;89.41
9750;BME280;4914;43.218;27.908;2022-07-11T06:48:01;100568.94;;;23.05;89.88
9750;BME280;4914;43.218;27.908;2022-07-11T06:50:28;100566.03;;;23.13;79.82
9750;BME280;4914;43.218;27.908;2022-07-11T06:52:55;100569.03;;;23.31;79.98
9750;BME280;4914;43.218;27.908;2022-07-11T06:55:22;100574.28;;;23.33;77.66
9750;BME280;4914;43.218;27.908;2022-07-11T06:57:49;100578.28;;;23.43;77.07
9750;BME280;4914;43.218;27.908;2022-07-11T07:00:16;100577.50;;;23.56;72.42
9750;BME280;4914;43.218;27.908;2022-07-11T07:02:44;100574.19;;;23.61;73.23
9750;BME280;4914;43.218;27.908;2022-07-11T07:05:12;100579.84;;;23.59;72.54
9750;BME280;4914;43.218;27.908;2022-07-11T07:07:39;100578.81;;;23.67;73.91
9750;BME280;4914;43.218;27.908;2022-07-11T07:10:07;100579.63;;;23.67;73.80
9750;BME280;4914;43.218;27.908;2022-07-11T07:12:37;100582.56;;;23.79;71.57
9750;BME280;4914;43.218;27.908;2022-07-11T07:15:05;100581.38;;;23.88;70.24
9750;BME280;4914;43.218;27.908;2022-07-11T07:17:32;100581.00;;;24.17;69.61
9750;BME280;4914;43.218;27.908;2022-07-11T07:19:59;100579.56;;;24.21;70.83
9750;BME280;4914;43.218;27.908;2022-07-11T07:22:27;100583.97;;;24.36;69.97
9750;BME280;4914;43.218;27.908;2022-07-11T07:24:54;100589.59;;;24.47;69.36
9750;BME280;4914;43.218;27.908;2022-07-11T07:27:21;100590.22;;;24.43;69.20
9750;BME280;4914;43.218;27.908;2022-07-11T07:29:47;100588.13;;;24.58;68.58
9750;BME280;4914;43.218;27.908;2022-07-11T07:32:14;100588.13;;;24.58;68.17
9750;BME280;4914;43.218;27.908;2022-07-11T07:34:41;100590.19;;;24.82;67.53
9750;BME280;4914;43.218;27.908;2022-07-11T07:37:08;100587.25;;;24.90;65.36
9750;BME280;4914;43.218;27.908;2022-07-11T07:39:36;100581.38;;;25.06;63.31
9750;BME280;4914;43.218;27.908;2022-07-11T07:42:03;100582.88;;;25.02;64.96
9750;BME280;4914;43.218;27.908;2022-07-11T07:44:32;100588.50;;;24.94;62.12
9750;BME280;4914;43.218;27.908;2022-07-11T07:46:59;100585.38;;;24.91;62.86
9750;BME280;4914;43.218;27.908;2022-07-11T07:49:26;100580.16;;;25.02;63.72
9750;BME280;4914;43.218;27.908;2022-07-11T07:51:53;100588.44;;;25.21;62.30
9750;BME280;4914;43.218;27.908;2022-07-11T07:54:21;100590.97;;;25.15;62.99
9750;BME280;4914;43.218;27.908;2022-07-11T07:56:50;100581.81;;;25.03;63.08
9750;BME280;4914;43.218;27.908;2022-07-11T07:59:17;100595.81;;;25.07;64.16
9750;BME280;4914;43.218;27.908;2022-07-11T08:01:44;100590.31;;;25.20;62.01
9750;BME280;4914;43.218;27.908;2022-07-11T08:04:11;100582.09;;;25.40;61.38
9750;BME280;4914;43.218;27.908;2022-07-11T08:06:38;100584.75;;;25.53;62.16
9750;BME280;4914;43.218;27.908;2022-07-11T08:09:06;100595.38;;;25.16;64.50
9750;BME280;4914;43.218;27.908;2022-07-11T08:11:33;100593.69;;;25.15;65.44
9750;BME280;4914;43.218;27.908;2022-07-11T08:14:02;100596.16;;;25.30;63.64
9750;BME280;4914;43.218;27.908;2022-07-11T08:16:30;100592.53;;;25.43;63.34
9750;BME280;4914;43.218;27.908;2022-07-11T08:18:58;100594.09;;;25.26;61.41
9750;BME280;4914;43.218;27.908;2022-07-11T08:21:25;100593.84;;;25.34;60.39
9750;BME280;4914;43.218;27.908;2022-07-11T08:23:52;100585.47;;;25.42;60.31
9750;BME280;4914;43.218;27.908;2022-07-11T08:26:20;100596.50;;;25.60;60.36
9750;BME280;4914;43.218;27.908;2022-07-11T08:28:46;100587.94;;;25.94;60.55
9750;BME280;4914;43.218;27.908;2022-07-11T08:31:15;100591.94;;;26.17;61.07
9750;BME280;4914;43.218;27.908;2022-07-11T08:33:42;100587.66;;;26.02;61.66
9750;BME280;4914;43.218;27.908;2022-07-11T08:36:09;100592.75;;;26.24;57.92
9750;BME280;4914;43.218;27.908;2022-07-11T08:38:37;100597.88;;;26.38;56.69
9750;BME280;4914;43.218;27.908;2022-07-11T08:41:05;100588.94;;;26.31;55.50
9750;BME280;4914;43.218;27.908;2022-07-11T08:43:31;100590.47;;;26.52;55.48
9750;BME280;4914;43.218;27.908;2022-07-11T08:45:59;100598.84;;;26.75;54.58
9750;BME280;4914;43.218;27.908;2022-07-11T08:48:29;100598.56;;;27.02;53.74
9750;BME280;4914;43.218;27.908;2022-07-11T08:50:59;100595.31;;;26.93;53.40
9750;BME280;4914;43.218;27.908;2022-07-11T08:53:26;100596.84;;;26.89;53.46
9750;BME280;4914;43.218;27.908;2022-07-11T08:55:54;100593.69;;;26.85;52.92
9750;BME280;4914;43.218;27.908;2022-07-11T08:58:22;100588.25;;;26.85;51.85
9750;BME280;4914;43.218;27.908;2022-07-11T09:00:49;100594.28;;;27.12;50.97
9750;BME280;4914;43.218;27.908;2022-07-11T09:03:18;100584.19;;;27.31;51.17
9750;BME280;4914;43.218;27.908;2022-07-11T09:05:47;100595.69;;;27.69;50.65
9750;BME280;4914;43.218;27.908;2022-07-11T09:08:14;100586.25;;;27.84;49.75
9750;BME280;4914;43.218;27.908;2022-07-11T09:10:41;100579.09;;;28.01;48.29
9750;BME280;4914;43.218;27.908;2022-07-11T09:13:10;100583.06;;;28.16;48.50
9750;BME280;4914;43.218;27.908;2022-07-11T09:15:38;100589.00;;;28.25;48.31
9750;BME280;4914;43.218;27.908;2022-07-11T09:18:30;100592.97;;;28.29;47.99
9750;BME280;4914;43.218;27.908;2022-07-11T09:20:59;100588.59;;;28.51;47.74
9750;BME280;4914;43.218;27.908;2022-07-11T09:23:44;100583.13;;;28.63;46.81
9750;BME280;4914;43.218;27.908;2022-07-11T09:26:29;100571.63;;;28.96;45.92
9750;BME280;4914;43.218;27.908;2022-07-11T09:29:02;100579.28;;;29.22;46.22
9750;BME280;4914;43.218;27.908;2022-07-11T09:31:30;100573.25;;;29.20;46.29
9750;BME280;4914;43.218;27.908;2022-07-11T09:34:00;100585.16;;;28.79;46.22
9750;BME280;4914;43.218;27.908;2022-07-11T09:36:42;100585.41;;;28.89;43.70
9750;BME280;4914;43.218;27.908;2022-07-11T09:39:13;100587.78;;;29.09;43.40
9750;BME280;4914;43.218;27.908;2022-07-11T09:41:40;100598.75;;;29.89;42.39
9750;BME280;4914;43.218;27.908;2022-07-11T09:44:12;100593.13;;;30.41;42.01
9750;BME280;4914;43.218;27.908;2022-07-11T09:46:39;100594.59;;;30.98;40.89
9750;BME280;4914;43.218;27.908;2022-07-11T09:49:07;100582.47;;;30.78;40.54
9750;BME280;4914;43.218;27.908;2022-07-11T09:51:36;100588.75;;;31.55;40.36
9750;BME280;4914;43.218;27.908;2022-07-11T09:54:05;100588.97;;;31.70;39.57
9750;BME280;4914;43.218;27.908;2022-07-11T09:56:38;100587.66;;;31.34;39.71
9750;BME280;4914;43.218;27.908;2022-07-11T09:59:06;100594.41;;;31.05;40.05
9750;BME280;4914;43.218;27.908;2022-07-11T10:01:34;100583.97;;;31.02;39.80
9750;BME280;4914;43.218;27.908;2022-07-11T10:04:01;100587.00;;;32.19;38.56
9750;BME280;4914;43.218;27.908;2022-07-11T10:06:29;100579.53;;;32.78;36.45
9750;BME280;4914;43.218;27.908;2022-07-11T10:08:56;100581.50;;;33.35;35.35
9750;BME280;4914;43.218;27.908;2022-07-11T10:11:23;100577.84;;;34.17;33.86
9750;BME280;4914;43.218;27.908;2022-07-11T10:13:51;100581.34;;;33.62;34.12
9750;BME280;4914;43.218;27.908;2022-07-11T10:16:24;100581.72;;;32.81;35.05
9750;BME280;4914;43.218;27.908;2022-07-11T10:18:59;100570.38;;;33.92;33.18
9750;BME280;4914;43.218;27.908;2022-07-11T10:21:37;100581.06;;;35.25;31.76
9750;BME280;4914;43.218;27.908;2022-07-11T10:24:21;100575.69;;;34.75;32.64
9750;BME280;4914;43.218;27.908;2022-07-11T10:27:06;100571.66;;;35.31;32.25
9750;BME280;4914;43.218;27.908;2022-07-11T10:29:40;100569.63;;;34.32;31.72
9750;BME280;4914;43.218;27.908;2022-07-11T10:32:11;100576.63;;;33.52;32.76
9750;BME280;4914;43.218;27.908;2022-07-11T10:34:38;100572.38;;;34.37;32.42
9750;BME280;4914;43.218;27.908;2022-07-11T10:37:07;100570.16;;;34.80;31.64
9750;BME280;4914;43.218;27.908;2022-07-11T10:39:36;100567.69;;;35.53;30.98
9750;BME280;4914;43.218;27.908;2022-07-11T10:42:04;100584.31;;;35.42;30.79
9750;BME280;4914;43.218;27.908;2022-07-11T10:44:50;100575.13;;;34.22;31.51
9750;BME280;4914;43.218;27.908;2022-07-11T10:47:31;100580.03;;;32.70;33.50
9750;BME280;4914;43.218;27.908;2022-07-11T10:50:07;100589.31;;;33.06;33.14
9750;BME280;4914;43.218;27.908;2022-07-11T10:52:37;100592.78;;;32.18;33.67
9750;BME280;4914;43.218;27.908;2022-07-11T10:55:16;100593.22;;;31.61;35.32
9750;BME280;4914;43.218;27.908;2022-07-11T10:57:57;100590.47;;;30.79;36.23
9750;BME280;4914;43.218;27.908;2022-07-11T11:00:28;100587.66;;;30.12;36.79
9750;BME280;4914;43.218;27.908;2022-07-11T11:03:01;100595.31;;;30.10;37.44
9750;BME280;4914;43.218;27.908;2022-07-11T11:05:40;100595.97;;;31.39;35.78
9750;BME280;4914;43.218;27.908;2022-07-11T11:08:45;100585.81;;;31.83;34.96
9750;BME280;4914;43.218;27.908;2022-07-11T11:11:34;100592.41;;;31.00;35.31
9750;BME280;4914;43.218;27.908;2022-07-11T11:14:19;100587.03;;;30.39;36.74
9750;BME280;4914;43.218;27.908;2022-07-11T11:16:48;100577.09;;;30.66;35.75
9750;BME280;4914;43.218;27.908;2022-07-11T11:19:51;100583.00;;;30.58;35.83
9750;BME280;4914;43.218;27.908;2022-07-11T11:22:19;100579.34;;;30.52;35.60
9750;BME280;4914;43.218;27.908;2022-07-11T11:24:48;100585.38;;;30.21;35.92
9750;BME280;4914;43.218;27.908;2022-07-11T11:27:17;100580.72;;;30.21;36.28
9750;BME280;4914;43.218;27.908;2022-07-11T11:29:48;100583.84;;;30.13;36.60
9750;BME280;4914;43.218;27.908;2022-07-11T11:32:15;100580.34;;;30.46;35.78
9750;BME280;4914;43.218;27.908;2022-07-11T11:34:43;100591.66;;;30.50;35.87
9750;BME280;4914;43.218;27.908;2022-07-11T11:37:11;100586.91;;;30.62;36.35
9750;BME280;4914;43.218;27.908;2022-07-11T11:39:39;100572.19;;;30.51;36.63
9750;BME280;4914;43.218;27.908;2022-07-11T11:42:15;100572.34;;;30.61;37.01
9750;BME280;4914;43.218;27.908;2022-07-11T11:45:04;100577.22;;;31.31;35.22
9750;BME280;4914;43.218;27.908;2022-07-11T11:47:35;100573.38;;;31.10;35.62
9750;BME280;4914;43.218;27.908;2022-07-11T11:50:03;100586.72;;;31.24;35.44
9750;BME280;4914;43.218;27.908;2022-07-11T11:52:32;100584.94;;;31.12;35.25
9750;BME280;4914;43.218;27.908;2022-07-11T11:54:59;100586.09;;;31.16;35.16
9750;BME280;4914;43.218;27.908;2022-07-11T11:57:28;100600.09;;;31.58;34.23
9750;BME280;4914;43.218;27.908;2022-07-11T11:59:55;100586.97;;;31.22;35.00
9750;BME280;4914;43.218;27.908;2022-07-11T12:02:25;100587.28;;;30.87;35.10
9750;BME280;4914;43.218;27.908;2022-07-11T12:04:52;100584.47;;;30.82;35.73
9750;BME280;4914;43.218;27.908;2022-07-11T12:07:27;100585.78;;;30.80;36.09
9750;BME280;4914;43.218;27.908;2022-07-11T12:09:56;100588.22;;;30.76;35.95
9750;BME280;4914;43.218;27.908;2022-07-11T12:12:26;100586.72;;;30.68;36.31
9750;BME280;4914;43.218;27.908;2022-07-11T12:15:27;100589.94;;;30.15;36.39
9750;BME280;4914;43.218;27.908;2022-07-11T12:17:59;100601.03;;;29.92;36.92
9750;BME280;4914;43.218;27.908;2022-07-11T12:20:37;100599.22;;;29.86;36.17
9750;BME280;4914;43.218;27.908;2022-07-11T12:23:06;100603.19;;;29.78;36.42
9750;BME280;4914;43.218;27.908;2022-07-11T12:25:34;100593.41;;;30.27;36.24
9750;BME280;4914;43.218;27.908;2022-07-11T12:28:03;100594.44;;;30.21;36.53
9750;BME280;4914;43.218;27.908;2022-07-11T12:30:30;100596.75;;;30.29;36.73
9750;BME280;4914;43.218;27.908;2022-07-11T12:33:05;100599.22;;;29.86;37.21
9750;BME280;4914;43.218;27.908;2022-07-11T12:35:32;100598.25;;;29.64;37.14
9750;BME280;4914;43.218;27.908;2022-07-11T12:37:59;100592.28;;;29.67;38.01
9750;BME280;4914;43.218;27.908;2022-07-11T12:40:26;100586.28;;;30.26;36.62
9750;BME280;4914;43.218;27.908;2022-07-11T12:42:53;100596.84;;;29.89;37.30
9750;BME280;4914;43.218;27.908;2022-07-11T12:45:21;100592.38;;;29.72;37.58
9750;BME280;4914;43.218;27.908;2022-07-11T12:47:48;100585.94;;;29.78;37.33
9750;BME280;4914;43.218;27.908;2022-07-11T12:50:17;100592.00;;;30.08;37.32
9750;BME280;4914;43.218;27.908;2022-07-11T12:52:46;100597.22;;;30.26;36.02
9750;BME280;4914;43.218;27.908;2022-07-11T12:55:20;100588.09;;;30.04;36.30
9750;BME280;4914;43.218;27.908;2022-07-11T12:58:06;100583.00;;;29.68;36.82
9750;BME280;4914;43.218;27.908;2022-07-11T13:00:35;100584.59;;;29.92;35.50
9750;BME280;4914;43.218;27.908;2022-07-11T13:03:03;100581.97;;;30.14;35.62
9750;BME280;4914;43.218;27.908;2022-07-11T13:05:46;100584.72;;;30.30;35.01